createdAt,value
2022-11-30T00:01:46.360Z,15.13
2022-11-30T00:05:01.379Z,15.10
2022-11-30T00:08:01.469Z,12.77
2022-11-30T00:11:27.415Z,12.87
2022-11-30T00:14:27.457Z,10.93
2022-11-30T00:17:42.455Z,13.27
2022-11-30T00:20:54.434Z,12.23
2022-11-30T00:24:06.452Z,14.03
2022-11-30T00:27:20.453Z,13.43
2022-11-30T00:30:44.600Z,13.77
2022-11-30T00:34:00.450Z,12.53
2022-11-30T00:37:12.546Z,13.30
2022-11-30T00:40:12.557Z,14.30
2022-11-30T00:43:37.492Z,13.90
2022-11-30T00:46:37.516Z,12.07
2022-11-30T00:49:49.547Z,10.90
2022-11-30T00:52:49.635Z,13.23
2022-11-30T00:56:13.547Z,14.83
2022-11-30T00:59:26.548Z,12.03
2022-11-30T01:02:41.629Z,14.00
2022-11-30T01:05:53.617Z,15.50
2022-11-30T01:09:06.570Z,12.93
2022-11-30T01:12:06.566Z,14.27
2022-11-30T01:15:32.641Z,15.53
2022-11-30T01:18:32.637Z,14.20
2022-11-30T01:21:48.630Z,15.67
2022-11-30T01:24:48.947Z,15.37
2022-11-30T01:28:13.706Z,13.90
2022-11-30T01:31:27.709Z,15.40
2022-11-30T01:34:39.760Z,17.93
2022-11-30T01:37:52.743Z,16.67
2022-11-30T01:41:05.662Z,16.50
2022-11-30T01:44:20.663Z,17.60
2022-11-30T01:47:46.700Z,20.70
2022-11-30T01:50:58.755Z,18.50
2022-11-30T01:54:22.725Z,24.07
2022-11-30T01:57:34.809Z,19.77
2022-11-30T02:00:47.757Z,18.90
2022-11-30T02:04:16.725Z,19.70
2022-11-30T02:07:28.922Z,20.07
2022-11-30T02:10:52.763Z,21.67
2022-11-30T02:14:13.779Z,19.33
2022-11-30T02:17:38.795Z,21.10
2022-11-30T02:20:56.783Z,19.80
2022-11-30T02:24:23.798Z,19.20
2022-11-30T02:27:38.879Z,20.10
2022-11-30T02:31:04.837Z,20.55
2022-11-30T02:34:16.916Z,20.10
2022-11-30T02:37:40.871Z,23.13
2022-11-30T02:40:40.951Z,19.17
2022-11-30T02:43:52.893Z,17.87
2022-11-30T02:47:07.965Z,19.47
2022-11-30T02:50:35.846Z,20.67
2022-11-30T02:53:47.892Z,21.63
2022-11-30T02:56:59.880Z,17.63
2022-11-30T03:00:11.998Z,20.93
2022-11-30T03:03:36.902Z,19.70
2022-11-30T03:06:36.977Z,21.80
2022-11-30T03:09:48.931Z,18.70
2022-11-30T03:13:01.033Z,18.57
2022-11-30T03:16:29.952Z,15.57
2022-11-30T03:19:44.019Z,17.40
2022-11-30T03:22:55.971Z,17.03
2022-11-30T03:25:56.011Z,18.60
2022-11-30T03:29:08.066Z,17.77
2022-11-30T03:32:08.029Z,17.10
2022-11-30T03:35:34.081Z,17.23
2022-11-30T03:38:34.078Z,17.57
2022-11-30T03:41:46.082Z,14.60
2022-11-30T03:44:49.230Z,15.73
2022-11-30T03:48:01.134Z,18.33
2022-11-30T03:51:14.140Z,15.43
2022-11-30T03:54:26.168Z,17.65
2022-11-30T03:57:29.188Z,18.67
2022-11-30T04:00:41.152Z,17.63
2022-11-30T04:04:05.164Z,15.03
2022-11-30T04:07:21.193Z,18.27
2022-11-30T04:10:33.145Z,17.30
2022-11-30T04:13:45.200Z,17.10
2022-11-30T04:16:57.233Z,17.73
2022-11-30T04:19:57.167Z,18.17
2022-11-30T04:23:24.153Z,17.20
2022-11-30T04:26:36.204Z,18.97
2022-11-30T04:29:48.221Z,20.03
2022-11-30T04:32:48.283Z,17.07
2022-11-30T04:36:12.253Z,19.27
2022-11-30T04:39:26.225Z,18.07
2022-11-30T04:42:38.248Z,20.53
2022-11-30T04:45:39.271Z,15.73
2022-11-30T04:48:51.217Z,17.87
2022-11-30T04:51:54.266Z,17.05
2022-11-30T04:55:23.300Z,17.57
2022-11-30T04:58:35.299Z,15.83
2022-11-30T05:01:51.402Z,17.10
2022-11-30T05:05:03.320Z,18.60
2022-11-30T05:08:16.394Z,20.47
2022-11-30T05:11:30.380Z,17.27
2022-11-30T05:14:43.304Z,18.80
2022-11-30T05:17:43.441Z,16.80
2022-11-30T05:21:11.380Z,17.70
2022-11-30T05:24:23.338Z,15.83
2022-11-30T05:27:49.362Z,16.57
2022-11-30T05:31:05.528Z,17.70
2022-11-30T05:34:17.411Z,19.73
2022-11-30T05:37:21.442Z,15.77
2022-11-30T05:40:37.402Z,17.30
2022-11-30T05:43:53.439Z,15.50
2022-11-30T05:47:05.525Z,16.90
2022-11-30T05:50:05.477Z,16.50
2022-11-30T05:53:17.476Z,15.80
2022-11-30T05:56:29.513Z,18.63
2022-11-30T06:00:00.435Z,15.43
2022-11-30T06:03:12.588Z,18.40
2022-11-30T06:06:12.458Z,15.97
2022-11-30T06:09:24.562Z,17.03
2022-11-30T06:12:24.596Z,14.87
2022-11-30T06:15:49.527Z,15.57
2022-11-30T06:19:01.578Z,14.00
2022-11-30T06:22:16.545Z,15.77
2022-11-30T06:25:17.629Z,16.67
2022-11-30T06:28:30.720Z,15.67
2022-11-30T06:31:44.664Z,14.87
2022-11-30T06:34:57.708Z,15.37
2022-11-30T06:38:09.648Z,15.35
2022-11-30T06:41:33.654Z,13.83
2022-11-30T06:44:33.590Z,14.60
2022-11-30T06:47:59.692Z,15.67
2022-11-30T06:50:59.616Z,12.20
2022-11-30T06:54:12.639Z,13.83
2022-11-30T06:57:15.703Z,11.77
2022-11-30T07:00:28.682Z,12.27
2022-11-30T07:03:41.688Z,12.87
2022-11-30T07:06:53.682Z,11.77
2022-11-30T07:09:53.734Z,10.23
2022-11-30T07:13:06.713Z,12.93
2022-11-30T07:16:06.841Z,10.67
2022-11-30T07:19:33.724Z,11.37
2022-11-30T07:22:45.713Z,12.03
2022-11-30T07:26:20.824Z,14.53
2022-11-30T07:29:20.735Z,10.30
2022-11-30T07:32:32.826Z,10.63
2022-11-30T07:35:46.841Z,12.23
2022-11-30T07:39:10.855Z,11.83
2022-11-30T07:42:10.773Z,13.07
2022-11-30T07:45:23.891Z,11.17
2022-11-30T07:48:47.807Z,12.23
2022-11-30T07:52:13.827Z,13.10
2022-11-30T07:55:13.895Z,14.30
2022-11-30T07:58:28.894Z,13.37
2022-11-30T08:01:40.974Z,12.00
2022-11-30T08:04:56.918Z,12.57
2022-11-30T08:08:09.924Z,12.50
2022-11-30T08:11:34.023Z,13.23
2022-11-30T08:14:50.447Z,13.80
2022-11-30T08:17:47.874Z,11.83
2022-11-30T08:20:50.096Z,12.67
2022-11-30T08:24:14.149Z,12.00
2022-11-30T08:27:13.987Z,11.73
2022-11-30T08:30:32.428Z,14.20
2022-11-30T08:33:30.890Z,10.25
2022-11-30T08:36:52.974Z,10.40
2022-11-30T08:40:07.040Z,9.10
2022-11-30T08:43:19.029Z,10.33
2022-11-30T08:49:44.072Z,10.27
2022-11-30T08:52:44.066Z,12.67
2022-11-30T08:56:08.998Z,9.67
2022-11-30T08:59:21.071Z,11.40
2022-11-30T09:02:33.098Z,10.90
2022-11-30T09:05:33.270Z,10.13
2022-11-30T09:08:45.073Z,11.07
2022-11-30T09:11:59.122Z,11.17
2022-11-30T09:15:12.128Z,11.30
2022-11-30T09:18:12.164Z,9.87
2022-11-30T09:21:36.109Z,13.60
2022-11-30T09:24:36.118Z,11.33
2022-11-30T09:28:01.122Z,11.03
2022-11-30T09:31:01.233Z,10.83
2022-11-30T09:34:13.185Z,10.90
2022-11-30T09:37:13.205Z,9.63
2022-11-30T09:40:38.146Z,9.67
2022-11-30T09:43:54.256Z,11.47
2022-11-30T09:47:19.175Z,13.17
2022-11-30T09:50:34.162Z,9.53
2022-11-30T09:53:59.249Z,10.43
2022-11-30T09:57:11.222Z,9.75
2022-11-30T10:00:37.257Z,8.93
2022-11-30T10:03:52.318Z,8.00
2022-11-30T10:07:06.292Z,10.67
2022-11-30T10:10:34.332Z,10.50
2022-11-30T10:13:50.291Z,10.73
2022-11-30T10:17:16.397Z,10.60
2022-11-30T10:20:30.318Z,7.80
2022-11-30T10:23:56.336Z,8.30
2022-11-30T10:27:08.296Z,10.07
2022-11-30T10:30:37.443Z,9.27
2022-11-30T10:33:51.363Z,8.03
2022-11-30T10:37:16.321Z,8.20
2022-11-30T10:40:28.354Z,8.83
2022-11-30T10:43:52.374Z,8.80
2022-11-30T10:47:04.348Z,10.27
2022-11-30T10:50:34.365Z,9.10
2022-11-30T10:53:46.504Z,9.13
2022-11-30T10:57:14.425Z,8.43
2022-11-30T11:00:26.424Z,8.70
2022-11-30T11:03:50.491Z,7.77
2022-11-30T11:07:05.521Z,8.93
2022-11-30T11:10:29.468Z,9.20
2022-11-30T11:13:41.443Z,10.17
2022-11-30T11:17:15.461Z,11.20
2022-11-30T11:20:31.527Z,10.47
2022-11-30T11:23:57.614Z,9.80
2022-11-30T11:27:16.562Z,9.90
2022-11-30T11:30:40.624Z,12.67
2022-11-30T11:33:52.574Z,9.43
2022-11-30T11:37:28.516Z,9.20
2022-11-30T11:40:42.600Z,10.43
2022-11-30T11:44:06.608Z,8.50
2022-11-30T11:47:18.598Z,8.87
2022-11-30T11:51:08.559Z,9.50
2022-11-30T11:54:05.740Z,9.87
2022-11-30T11:57:31.582Z,10.27
2022-11-30T12:00:44.624Z,10.13
2022-11-30T12:04:10.624Z,12.17
2022-11-30T12:07:22.714Z,13.90
2022-11-30T12:10:52.630Z,16.20
2022-11-30T12:14:04.695Z,12.10
2022-11-30T12:17:33.640Z,12.37
2022-11-30T12:20:45.712Z,14.33
2022-11-30T12:24:28.727Z,13.80
2022-11-30T12:27:41.728Z,25.30
2022-11-30T12:31:07.802Z,13.87
2022-11-30T12:34:22.693Z,17.30
2022-11-30T12:37:48.020Z,17.37
2022-11-30T12:41:00.760Z,19.47
2022-11-30T12:44:27.753Z,17.47
2022-11-30T12:47:43.801Z,18.03
2022-11-30T12:51:10.907Z,20.57
2022-11-30T12:54:23.822Z,22.80
2022-11-30T12:57:47.787Z,22.83
2022-11-30T13:01:03.828Z,21.67
2022-11-30T13:04:29.806Z,22.40
2022-11-30T13:07:43.008Z,22.40
2022-11-30T13:11:06.847Z,21.87
2022-11-30T13:14:18.793Z,21.13
2022-11-30T13:17:45.862Z,20.63
2022-11-30T13:21:11.816Z,22.07
2022-11-30T13:24:35.943Z,20.57
2022-11-30T13:27:47.834Z,24.53
2022-11-30T13:31:12.947Z,23.60
2022-11-30T13:34:24.837Z,20.77
2022-11-30T13:37:58.266Z,32.55
2022-11-30T13:41:04.938Z,33.10
2022-11-30T13:44:29.981Z,24.03
2022-11-30T13:47:41.976Z,23.47
2022-11-30T13:51:05.979Z,28.03
2022-11-30T13:54:27.840Z,25.97
2022-11-30T13:57:46.945Z,27.70
2022-11-30T14:01:24.960Z,29.27
2022-11-30T14:04:54.026Z,22.53
2022-11-30T14:08:05.982Z,32.27
2022-11-30T14:11:38.060Z,31.23
2022-11-30T14:15:06.977Z,30.70
2022-11-30T14:18:31.058Z,27.00
2022-11-30T14:21:45.002Z,33.83
2022-11-30T14:25:09.096Z,25.87
2022-11-30T14:28:21.054Z,35.23
2022-11-30T14:31:47.123Z,26.10
2022-11-30T14:35:00.209Z,32.47
2022-11-30T14:38:24.156Z,31.47
2022-11-30T14:41:45.155Z,29.40
2022-11-30T14:45:09.095Z,32.27
2022-11-30T14:48:30.124Z,29.83
2022-11-30T14:51:56.139Z,28.50
2022-11-30T14:55:10.223Z,30.63
2022-11-30T14:58:38.155Z,31.17
2022-11-30T15:01:53.192Z,29.63
2022-11-30T15:05:20.191Z,34.63
2022-11-30T15:08:33.242Z,28.57
2022-11-30T15:11:57.189Z,31.07
2022-11-30T15:15:12.256Z,35.67
2022-11-30T15:18:37.294Z,32.97
2022-11-30T15:21:53.209Z,30.80
2022-11-30T15:25:05.293Z,35.90
2022-11-30T15:28:20.272Z,40.63
2022-11-30T15:31:44.434Z,33.30
2022-11-30T15:34:57.064Z,27.20
2022-11-30T15:38:22.376Z,32.13
2022-11-30T15:41:38.304Z,41.90
2022-11-30T15:45:03.306Z,32.17
2022-11-30T15:48:18.360Z,30.13
2022-11-30T15:51:43.321Z,33.23
2022-11-30T15:55:12.399Z,36.63
2022-11-30T15:58:48.356Z,32.83
2022-11-30T16:02:14.588Z,37.00
2022-11-30T16:05:48.350Z,38.53
2022-11-30T16:08:48.358Z,36.30
2022-11-30T16:12:15.438Z,38.17
2022-11-30T16:15:31.400Z,39.13
2022-11-30T16:18:55.390Z,32.03
2022-11-30T16:22:07.385Z,35.47
2022-11-30T16:25:20.375Z,34.50
2022-11-30T16:28:34.507Z,32.37
2022-11-30T16:31:58.618Z,30.50
2022-11-30T16:34:58.461Z,34.83
2022-11-30T16:38:10.457Z,33.97
2022-11-30T16:41:24.524Z,34.57
2022-11-30T16:44:51.497Z,35.60
2022-11-30T16:48:07.540Z,34.47
2022-11-30T16:51:35.444Z,33.60
2022-11-30T16:54:35.574Z,33.40
2022-11-30T16:57:48.483Z,34.00
2022-11-30T17:01:02.606Z,31.93
2022-11-30T17:04:29.571Z,35.63
2022-11-30T17:07:29.585Z,34.67
2022-11-30T17:10:44.599Z,34.43
2022-11-30T17:13:47.565Z,28.13
2022-11-30T17:17:13.636Z,35.30
2022-11-30T17:20:13.595Z,33.37
2022-11-30T17:23:25.559Z,42.87
2022-11-30T17:26:37.575Z,31.37
2022-11-30T17:29:49.683Z,34.90
2022-11-30T17:33:03.673Z,37.13
2022-11-30T17:36:27.598Z,38.33
2022-11-30T17:39:28.762Z,34.50
2022-11-30T17:42:40.653Z,33.65
2022-11-30T17:45:53.659Z,31.83
2022-11-30T17:49:19.668Z,33.73
2022-11-30T17:52:19.709Z,33.57
2022-11-30T17:55:32.703Z,37.97
2022-11-30T17:58:36.081Z,38.70
2022-11-30T18:01:44.752Z,34.53
2022-11-30T18:05:10.711Z,35.53
2022-11-30T18:08:22.716Z,41.17
2022-11-30T18:11:47.728Z,30.50
2022-11-30T18:14:48.109Z,34.83
2022-11-30T18:17:59.771Z,31.23
2022-11-30T18:21:12.751Z,37.20
2022-11-30T18:24:26.098Z,44.83
2022-11-30T18:27:25.777Z,31.80
2022-11-30T18:30:38.868Z,47.13
2022-11-30T18:33:53.897Z,35.93
2022-11-30T18:37:19.837Z,34.97
2022-11-30T18:40:20.856Z,43.93
2022-11-30T18:43:32.918Z,44.77
2022-11-30T18:46:44.957Z,38.40
2022-11-30T18:49:56.899Z,33.00
2022-11-30T18:53:13.838Z,36.83
2022-11-30T18:56:38.857Z,32.70
2022-11-30T18:59:38.858Z,43.77
2022-11-30T19:02:51.076Z,38.35
2022-11-30T19:05:51.898Z,39.07
2022-11-30T19:09:16.928Z,39.57
2022-11-30T19:12:17.975Z,35.83
2022-11-30T19:15:30.885Z,45.17
2022-11-30T19:18:30.946Z,42.20
2022-11-30T19:21:42.994Z,36.40
2022-11-30T19:24:55.937Z,35.20
2022-11-30T19:28:08.029Z,32.50
2022-11-30T19:31:07.985Z,32.77
2022-11-30T19:34:31.972Z,35.67
2022-11-30T19:37:44.053Z,33.07
2022-11-30T19:41:10.074Z,32.90
2022-11-30T19:44:22.147Z,31.70
2022-11-30T19:47:33.987Z,36.07
2022-11-30T19:50:46.127Z,33.43
2022-11-30T19:54:10.059Z,30.87
2022-11-30T19:57:24.081Z,28.63
2022-11-30T20:00:49.034Z,34.77
2022-11-30T20:04:13.144Z,32.13
2022-11-30T20:07:25.255Z,30.17
2022-11-30T20:10:37.051Z,31.80
2022-11-30T20:13:54.059Z,25.80
2022-11-30T20:17:06.110Z,30.47
2022-11-30T20:20:06.149Z,34.97
2022-11-30T20:23:30.100Z,35.83
2022-11-30T20:26:45.167Z,31.63
2022-11-30T20:30:10.180Z,32.50
2022-11-30T20:33:13.217Z,27.77
2022-11-30T20:36:37.280Z,29.87
2022-11-30T20:39:41.126Z,33.33
2022-11-30T20:42:49.317Z,29.60
2022-11-30T20:46:03.371Z,32.63
2022-11-30T20:49:28.275Z,29.10
2022-11-30T20:52:40.292Z,28.50
2022-11-30T20:55:52.270Z,32.67
2022-11-30T20:59:06.126Z,31.93
2022-11-30T21:02:32.285Z,32.23
2022-11-30T21:05:45.281Z,33.60
2022-11-30T21:09:09.322Z,30.47
2022-11-30T21:12:09.569Z,28.40
2022-11-30T21:15:24.379Z,30.97
2022-11-30T21:18:38.341Z,30.13
2022-11-30T21:21:50.372Z,34.77
2022-11-30T21:24:50.497Z,39.20
2022-11-30T21:28:17.389Z,32.67
2022-11-30T21:31:17.342Z,36.33
2022-11-30T21:34:43.348Z,37.33
2022-11-30T21:37:43.417Z,38.20
2022-11-30T21:40:55.397Z,36.33
2022-11-30T21:43:55.361Z,36.55
2022-11-30T21:47:07.455Z,34.30
2022-11-30T21:50:26.949Z,31.20
2022-11-30T21:53:36.469Z,34.27
2022-11-30T21:56:52.424Z,36.33
2022-11-30T22:00:05.433Z,33.23
2022-11-30T22:03:19.566Z,36.37
2022-11-30T22:06:31.463Z,32.40
2022-11-30T22:09:43.491Z,36.93
2022-11-30T22:12:43.482Z,36.30
2022-11-30T22:15:58.513Z,36.00
2022-11-30T22:19:10.548Z,31.37
2022-11-30T22:22:37.548Z,32.70
2022-11-30T22:25:37.572Z,31.73
2022-11-30T22:29:04.591Z,31.75
2022-11-30T22:32:16.558Z,32.90
2022-11-30T22:35:29.624Z,36.83
2022-11-30T22:38:43.610Z,34.17
2022-11-30T22:42:07.590Z,33.80
2022-11-30T22:45:07.559Z,34.97
2022-11-30T22:48:19.788Z,32.37
2022-11-30T22:51:34.655Z,40.63
2022-11-30T22:55:00.702Z,31.67
2022-11-30T22:58:00.705Z,30.40
2022-11-30T23:01:31.613Z,33.57
2022-11-30T23:04:43.649Z,33.57
2022-11-30T23:07:55.752Z,31.67
2022-11-30T23:11:09.745Z,29.77
2022-11-30T23:14:22.698Z,29.53
2022-11-30T23:17:25.669Z,39.40
2022-11-30T23:20:37.686Z,35.87
2022-11-30T23:23:37.748Z,29.30
2022-11-30T23:27:04.683Z,29.25
2022-11-30T23:30:04.784Z,28.17
2022-11-30T23:33:16.726Z,37.17
2022-11-30T23:36:29.765Z,36.90
2022-11-30T23:39:41.708Z,34.07
2022-11-30T23:42:55.741Z,30.90
2022-11-30T23:46:08.766Z,31.07
2022-11-30T23:49:08.771Z,35.35
2022-11-30T23:52:20.765Z,33.57
2022-11-30T23:55:21.778Z,37.70
2022-11-30T23:58:47.762Z,36.33
